Time;durP1;ratioP1;P1;durP2;ratioP2;P2;SDS_P1;SDS_P2;PMS_P1;PMS_P2;Temp;Humidity;BMP_temperature;BMP_pressure;BME280_temperature;BME280_humidity;BME280_pressure;Samples;Min_cycle;Max_cycle;Signal;HPM_P1;HPM_P2
2023/06/06 00:02:04;;;;;;;;;;;;;;;10.23;71.56;100140.88;5045386;28;20006;-76
2023/06/06 00:04:31;;;;;;;;;;;;;;;10.26;71.57;100134.09;5029984;28;19932;-76
2023/06/06 00:06:57;;;;;;;;;;;;;;;10.25;71.78;100135.97;5046965;28;19924;-75
2023/06/06 00:09:23;;;;;;;;;;;;;;;10.28;72.01;100137.38;5028862;28;19925;-75
2023/06/06 00:11:49;;;;;;;;;;;;;;;10.26;71.90;100143.09;5044142;28;20355;-75
2023/06/06 00:14:18;;;;;;;;;;;;;;;10.27;71.96;100144.72;5043027;28;19928;-75
2023/06/06 00:16:48;;;;;;;;;;;;;;;10.30;71.84;100138.75;5030501;28;19924;-76
2023/06/06 00:19:15;;;;;;;;;;;;;;;10.34;71.71;100139.88;5044992;28;19947;-76
2023/06/06 00:21:42;;;;;;;;;;;;;;;10.38;71.14;100140.16;5047852;28;19926;-71
2023/06/06 00:24:11;;;;;;;;;;;;;;;10.43;70.96;100136.66;5045727;28;19978;-71
2023/06/06 00:26:37;;;;;;;;;;;;;;;10.46;71.03;100142.41;5064308;28;19924;-71
2023/06/06 00:29:03;;;;;;;;;;;;;;;10.52;70.26;100146.00;5065430;28;20307;-71
2023/06/06 00:31:28;;;;;;;;;;;;;;;10.59;69.65;100149.31;5028416;28;19931;-70
2023/06/06 00:33:54;;;;;;;;;;;;;;;10.64;69.67;100151.25;5045080;28;19925;-70
2023/06/06 00:36:21;;;;;;;;;;;;;;;10.70;69.29;100149.34;5045559;28;19924;-76
2023/06/06 00:38:48;;;;;;;;;;;;;;;10.76;68.83;100157.31;5044750;28;20409;-76
2023/06/06 00:41:14;;;;;;;;;;;;;;;10.80;68.28;100154.88;5046429;28;20374;-76
2023/06/06 00:43:40;;;;;;;;;;;;;;;10.84;67.90;100160.63;5046357;28;19959;-76
2023/06/06 00:46:06;;;;;;;;;;;;;;;10.89;68.04;100157.91;5045709;28;19925;-76
2023/06/06 00:48:32;;;;;;;;;;;;;;;10.89;68.15;100158.72;5027853;28;19925;-76
2023/06/06 00:50:58;;;;;;;;;;;;;;;10.93;67.86;100161.75;5046815;28;19925;-77
2023/06/06 00:53:24;;;;;;;;;;;;;;;10.98;67.31;100161.75;5046494;28;20458;-76
2023/06/06 00:55:52;;;;;;;;;;;;;;;11.04;66.98;100165.34;5044481;28;20065;-77
2023/06/06 00:58:18;;;;;;;;;;;;;;;11.06;66.93;100161.25;5045536;28;20391;-76
2023/06/06 01:00:46;;;;;;;;;;;;;;;11.10;66.91;100166.19;5028347;28;20359;-76
2023/06/06 01:03:14;;;;;;;;;;;;;;;11.12;66.61;100164.81;5046462;28;20304;-76
2023/06/06 01:05:40;;;;;;;;;;;;;;;11.14;66.77;100164.53;5027229;28;20031;-76
2023/06/06 01:08:07;;;;;;;;;;;;;;;11.17;66.49;100175.78;5042872;28;20019;-76
2023/06/06 01:10:36;;;;;;;;;;;;;;;11.16;66.83;100174.13;5043456;28;20296;-76
2023/06/06 01:13:11;;;;;;;;;;;;;;;11.16;66.82;100170.56;5045773;28;19924;-76
2023/06/06 01:15:42;;;;;;;;;;;;;;;11.19;66.62;100178.25;5045039;28;20035;-75
2023/06/06 01:18:08;;;;;;;;;;;;;;;11.20;66.40;100186.19;5043294;28;19951;-76
2023/06/06 01:20:34;;;;;;;;;;;;;;;11.20;66.57;100183.44;5044979;28;19929;-76
2023/06/06 01:23:01;;;;;;;;;;;;;;;11.23;65.97;100182.09;5047539;28;20406;-75
2023/06/06 01:25:27;;;;;;;;;;;;;;;11.21;66.17;100176.88;5044581;28;20399;-76
2023/06/06 01:27:55;;;;;;;;;;;;;;;11.19;66.02;100179.06;5046392;28;19971;-76
2023/06/06 01:30:22;;;;;;;;;;;;;;;11.21;65.73;100182.34;5043097;28;19935;-75
2023/06/06 01:33:00;;;;;;;;;;;;;;;11.23;65.41;100182.09;5045292;28;20355;-75
2023/06/06 01:35:30;;;;;;;;;;;;;;;11.26;65.07;100178.81;5043867;28;19926;-76
2023/06/06 01:37:59;;;;;;;;;;;;;;;11.29;65.21;100182.94;5043606;28;20311;-76
2023/06/06 01:40:29;;;;;;;;;;;;;;;11.29;65.40;100188.41;5043849;28;20039;-77
2023/06/06 01:42:55;;;;;;;;;;;;;;;11.29;65.31;100186.47;5045424;28;19924;-76
2023/06/06 01:45:23;;;;;;;;;;;;;;;11.28;65.57;100187.56;5043576;28;20315;-75
2023/06/06 01:47:51;;;;;;;;;;;;;;;11.29;65.73;100185.66;5040330;28;20311;-76
2023/06/06 01:50:16;;;;;;;;;;;;;;;11.30;65.59;100187.31;5040399;28;19925;-75
2023/06/06 01:52:42;;;;;;;;;;;;;;;11.32;65.38;100190.59;5044784;28;20035;-76
2023/06/06 01:55:09;;;;;;;;;;;;;;;11.33;65.70;100198.56;5041954;28;19925;-71
2023/06/06 01:57:36;;;;;;;;;;;;;;;11.30;66.00;100190.06;5044922;28;19932;-72
2023/06/06 02:00:07;;;;;;;;;;;;;;;11.35;65.85;100192.78;5044005;28;19932;-72
2023/06/06 02:02:39;;;;;;;;;;;;;;;11.36;65.64;100191.69;5043367;28;20462;-71
2023/06/06 02:05:05;;;;;;;;;;;;;;;11.39;65.78;100196.63;5026372;28;19924;-71
2023/06/06 02:07:34;;;;;;;;;;;;;;;11.42;65.91;100195.28;5043177;28;20297;-71
2023/06/06 02:10:01;;;;;;;;;;;;;;;11.45;65.32;100200.19;5025512;28;19924;-71
2023/06/06 02:12:29;;;;;;;;;;;;;;;11.49;65.29;100202.13;5044068;28;20396;-71
2023/06/06 02:14:56;;;;;;;;;;;;;;;11.54;65.18;100201.31;5024953;28;19972;-72
2023/06/06 02:17:22;;;;;;;;;;;;;;;11.60;64.62;100196.69;5041722;28;19928;-71
2023/06/06 02:19:52;;;;;;;;;;;;;;;11.62;64.55;100197.22;5044419;28;19925;-70
2023/06/06 02:22:18;;;;;;;;;;;;;;;11.68;64.56;100204.34;5046318;28;19971;-70
2023/06/06 02:24:43;;;;;;;;;;;;;;;11.69;64.48;100205.97;5044816;28;19932;-71
2023/06/06 02:27:11;;;;;;;;;;;;;;;11.68;64.51;100204.34;5039843;28;20327;-71
2023/06/06 02:29:37;;;;;;;;;;;;;;;11.70;64.42;100202.16;5039627;28;19924;-72
2023/06/06 02:32:04;;;;;;;;;;;;;;;11.72;64.46;100202.72;5048359;28;19925;-72
2023/06/06 02:34:30;;;;;;;;;;;;;;;11.75;64.38;100207.66;5046023;28;20015;-71
2023/06/06 02:36:56;;;;;;;;;;;;;;;11.76;64.32;100209.28;5043042;28;19946;-71
2023/06/06 02:39:22;;;;;;;;;;;;;;;11.80;64.03;100208.75;5042018;28;20537;-70
2023/06/06 02:41:50;;;;;;;;;;;;;;;11.73;64.14;100196.16;5043963;28;19924;-71
2023/06/06 02:44:17;;;;;;;;;;;;;;;11.81;64.38;100208.47;5027724;28;19924;-71
2023/06/06 02:46:45;;;;;;;;;;;;;;;11.85;63.84;100212.31;5027182;28;20028;-71
2023/06/06 02:49:13;;;;;;;;;;;;;;;11.87;63.77;100210.13;5044017;28;20359;-71
2023/06/06 02:51:40;;;;;;;;;;;;;;;11.89;64.09;100210.66;5025566;28;20392;-71
2023/06/06 02:54:06;;;;;;;;;;;;;;;11.90;64.05;100201.34;5040726;28;19975;-71
2023/06/06 02:56:32;;;;;;;;;;;;;;;11.90;63.79;100209.56;5027031;28;19932;-70
2023/06/06 02:58:58;;;;;;;;;;;;;;;11.87;64.20;100207.38;5025412;28;19924;-71
2023/06/06 03:01:25;;;;;;;;;;;;;;;11.93;64.12;100213.69;5043523;28;19924;-71
2023/06/06 03:03:51;;;;;;;;;;;;;;;11.99;63.41;100217.25;5043870;28;19924;-69
2023/06/06 03:06:20;;;;;;;;;;;;;;;12.05;63.31;100219.75;5043204;28;20022;-72
2023/06/06 03:08:47;;;;;;;;;;;;;;;12.10;63.32;100220.84;5042109;28;19948;-70
2023/06/06 03:11:13;;;;;;;;;;;;;;;12.17;63.14;100221.38;5024277;28;19964;-72
2023/06/06 03:13:39;;;;;;;;;;;;;;;12.23;62.89;100224.94;5035078;28;19967;-70
2023/06/06 03:16:05;;;;;;;;;;;;;;;12.35;62.67;100233.69;5042634;28;19925;-71
2023/06/06 03:18:33;;;;;;;;;;;;;;;12.40;62.67;100235.63;5026730;28;19924;-72
2023/06/06 03:21:05;;;;;;;;;;;;;;;12.47;62.46;100236.97;5027116;28;20027;-71
2023/06/06 03:23:39;;;;;;;;;;;;;;;12.52;62.01;100238.91;5060056;28;19925;-72
2023/06/06 03:26:05;;;;;;;;;;;;;;;12.58;62.06;100232.28;5042428;28;19925;-71
2023/06/06 03:28:32;;;;;;;;;;;;;;;12.63;61.64;100232.25;5043039;28;19932;-71
2023/06/06 03:30:59;;;;;;;;;;;;;;;12.72;61.45;100239.94;5008847;28;19924;-75
2023/06/06 03:33:28;;;;;;;;;;;;;;;12.71;61.57;100227.31;5034990;28;20312;-75
2023/06/06 03:35:55;;;;;;;;;;;;;;;12.90;60.80;100236.59;5045798;28;19925;-76
2023/06/06 03:38:22;;;;;;;;;;;;;;;12.99;60.86;100233.28;5042570;28;20433;-76
2023/06/06 03:40:49;;;;;;;;;;;;;;;13.03;60.68;100239.84;5041645;28;19928;-76
2023/06/06 03:43:15;;;;;;;;;;;;;;;13.02;60.45;100236.25;5009143;28;20350;-76
2023/06/06 03:45:41;;;;;;;;;;;;;;;13.00;60.32;100229.44;5042070;28;19925;-71
2023/06/06 03:48:09;;;;;;;;;;;;;;;13.00;60.75;100243.94;5044949;28;19967;-72
2023/06/06 03:50:35;;;;;;;;;;;;;;;12.91;60.55;100237.41;5030013;28;20035;-75
2023/06/06 03:53:01;;;;;;;;;;;;;;;12.86;61.02;100234.66;5048349;28;19967;-75
2023/06/06 03:55:28;;;;;;;;;;;;;;;12.90;60.78;100242.06;5047421;28;19964;-75
2023/06/06 03:57:55;;;;;;;;;;;;;;;13.00;60.36;100238.47;5044930;28;20495;-75
2023/06/06 04:00:21;;;;;;;;;;;;;;;13.04;59.73;100238.72;5047377;28;20152;-75
2023/06/06 04:02:48;;;;;;;;;;;;;;;12.96;59.53;100240.13;5029475;28;20359;-76
2023/06/06 04:05:15;;;;;;;;;;;;;;;12.93;59.56;100234.38;5043010;28;19925;-75
2023/06/06 04:07:41;;;;;;;;;;;;;;;12.95;59.70;100232.16;5044877;28;19925;-76
2023/06/06 04:10:07;;;;;;;;;;;;;;;12.98;59.85;100234.38;5046540;28;19936;-71
2023/06/06 04:12:33;;;;;;;;;;;;;;;12.94;59.81;100233.28;5044347;28;20016;-72
2023/06/06 04:15:00;;;;;;;;;;;;;;;12.93;60.02;100237.13;5044743;28;20028;-71
2023/06/06 04:17:26;;;;;;;;;;;;;;;12.96;60.26;100233.84;5045259;28;19925;-71
2023/06/06 04:19:52;;;;;;;;;;;;;;;13.03;60.42;100231.59;5043201;28;19925;-70
2023/06/06 04:22:18;;;;;;;;;;;;;;;13.11;60.08;100231.03;5047324;28;20470;-71
2023/06/06 04:24:44;;;;;;;;;;;;;;;13.12;59.77;100232.66;5049188;28;19978;-71
2023/06/06 04:27:11;;;;;;;;;;;;;;;13.09;58.87;100235.16;5036446;28;19924;-71
2023/06/06 04:29:40;;;;;;;;;;;;;;;13.10;59.23;100231.31;5045686;28;19970;-71
2023/06/06 04:32:10;;;;;;;;;;;;;;;13.11;59.54;100232.94;5029642;28;19925;-72
2023/06/06 04:34:39;;;;;;;;;;;;;;;13.19;59.31;100229.63;5044891;28;20039;-72
2023/06/06 04:37:07;;;;;;;;;;;;;;;13.25;58.89;100231.22;5045475;28;19956;-71
2023/06/06 04:39:34;;;;;;;;;;;;;;;13.23;58.68;100232.59;5043786;28;19970;-72
2023/06/06 04:42:01;;;;;;;;;;;;;;;13.23;58.67;100229.84;5044812;28;20296;-76
2023/06/06 04:44:27;;;;;;;;;;;;;;;13.22;58.69;100236.47;5029202;28;19924;-76
2023/06/06 04:47:00;;;;;;;;;;;;;;;13.25;58.61;100235.88;5047720;28;19960;-76
2023/06/06 04:49:27;;;;;;;;;;;;;;;13.27;58.57;100239.19;5030263;28;19925;-76
2023/06/06 04:51:56;;;;;;;;;;;;;;;13.29;57.79;100231.50;5049469;28;20005;-74
2023/06/06 04:54:23;;;;;;;;;;;;;;;13.25;58.01;100231.22;5052444;28;19964;-76
2023/06/06 04:56:51;;;;;;;;;;;;;;;13.30;57.90;100233.94;5049107;28;20418;-76
2023/06/06 04:59:22;;;;;;;;;;;;;;;13.35;57.47;100233.09;5047890;28;19924;-76
2023/06/06 05:01:48;;;;;;;;;;;;;;;13.38;57.02;100220.72;5045443;28;19931;-75
2023/06/06 05:04:15;;;;;;;;;;;;;;;13.47;56.73;100221.78;5047025;28;19935;-76
2023/06/06 05:06:42;;;;;;;;;;;;;;;13.57;56.27;100219.00;5027741;28;20015;-75
2023/06/06 05:09:08;;;;;;;;;;;;;;;13.56;55.08;100217.34;5043393;28;19978;-76
2023/06/06 05:11:34;;;;;;;;;;;;;;;13.52;55.25;100213.53;5044821;28;20346;-75
2023/06/06 05:14:00;;;;;;;;;;;;;;;13.50;55.19;100228.66;5043810;28;19948;-76
2023/06/06 05:16:26;;;;;;;;;;;;;;;13.59;55.57;100221.47;5047929;28;20380;-76
2023/06/06 05:18:52;;;;;;;;;;;;;;;13.69;55.46;100224.13;5041595;28;19970;-76
2023/06/06 05:21:18;;;;;;;;;;;;;;;13.80;55.07;100226.81;5042593;28;19924;-76
2023/06/06 05:23:46;;;;;;;;;;;;;;;13.88;54.50;100221.53;5041227;28;19964;-71
2023/06/06 05:26:12;;;;;;;;;;;;;;;13.96;54.22;100224.75;5020952;28;20384;-71
2023/06/06 05:28:38;;;;;;;;;;;;;;;14.02;53.86;100215.38;5022642;28;19931;-71
2023/06/06 05:31:07;;;;;;;;;;;;;;;14.06;53.20;100218.38;5038844;28;19924;-71
2023/06/06 05:33:33;;;;;;;;;;;;;;;14.06;52.85;100219.19;5037942;28;19928;-76
2023/06/06 05:36:00;;;;;;;;;;;;;;;14.11;52.68;100221.88;5023677;28;20075;-76
2023/06/06 05:38:26;;;;;;;;;;;;;;;14.14;51.49;100217.72;5044438;28;19924;-75
2023/06/06 05:40:53;;;;;;;;;;;;;;;14.18;51.42;100214.13;5047678;28;19928;-76
2023/06/06 05:43:19;;;;;;;;;;;;;;;14.22;50.94;100221.78;5042717;28;19931;-76
2023/06/06 05:45:45;;;;;;;;;;;;;;;14.27;51.13;100219.81;4688648;28;9999810;-77
2023/06/06 05:48:10;;;;;;;;;;;;;;;14.31;50.13;100215.38;5043991;28;20372;-76
2023/06/06 05:50:37;;;;;;;;;;;;;;;14.37;50.33;100218.91;5039968;28;20470;-76
2023/06/06 05:53:02;;;;;;;;;;;;;;;14.42;50.86;100220.78;5038297;28;19925;-77
2023/06/06 05:55:29;;;;;;;;;;;;;;;14.43;50.77;100216.91;5037384;28;19925;-76
2023/06/06 05:57:56;;;;;;;;;;;;;;;14.46;49.88;100217.16;5040327;28;20023;-71
2023/06/06 06:00:23;;;;;;;;;;;;;;;14.46;48.75;100222.66;5038482;28;20138;-70
2023/06/06 06:02:51;;;;;;;;;;;;;;;14.48;48.96;100210.56;5041874;28;19924;-70
2023/06/06 06:05:17;;;;;;;;;;;;;;;14.52;49.28;100215.19;5043337;28;20039;-76
2023/06/06 06:07:43;;;;;;;;;;;;;;;14.54;48.99;100210.22;5043854;28;19925;-76
2023/06/06 06:10:09;;;;;;;;;;;;;;;14.57;48.05;100212.38;5041974;28;20023;-76
2023/06/06 06:12:35;;;;;;;;;;;;;;;14.66;47.86;100218.06;5034747;28;20036;-76
2023/06/06 06:15:03;;;;;;;;;;;;;;;14.67;47.34;100205.09;5039944;28;20453;-76
2023/06/06 06:17:29;;;;;;;;;;;;;;;14.71;47.53;100212.50;5043140;28;20351;-76
2023/06/06 06:19:55;;;;;;;;;;;;;;;14.79;46.93;100207.50;5042940;28;20028;-76
2023/06/06 06:22:22;;;;;;;;;;;;;;;14.98;46.38;100208.34;5043936;28;20035;-76
2023/06/06 06:24:49;;;;;;;;;;;;;;;15.21;46.31;100210.53;5044740;28;19978;-76
2023/06/06 06:27:15;;;;;;;;;;;;;;;15.40;46.13;100210.56;5039153;28;19925;-76
2023/06/06 06:29:41;;;;;;;;;;;;;;;15.51;45.80;100208.47;5039072;28;19925;-75
2023/06/06 06:32:08;;;;;;;;;;;;;;;15.65;45.72;100211.28;5034115;28;19932;-76
2023/06/06 06:34:34;;;;;;;;;;;;;;;15.99;45.17;100212.97;5037734;28;20015;-71
2023/06/06 06:37:02;;;;;;;;;;;;;;;16.21;44.07;100217.06;5043857;28;20036;-77
2023/06/06 06:39:28;;;;;;;;;;;;;;;16.29;43.95;100208.91;5036154;28;19925;-77
2023/06/06 06:41:53;;;;;;;;;;;;;;;16.32;43.68;100203.88;5030684;28;19952;-71
2023/06/06 06:44:19;;;;;;;;;;;;;;;16.43;43.46;100208.91;5026333;28;19970;-70
2023/06/06 06:46:45;;;;;;;;;;;;;;;16.51;43.00;100198.31;5027307;28;19929;-71
2023/06/06 06:49:15;;;;;;;;;;;;;;;16.54;42.80;100206.75;5029605;28;20359;-70
2023/06/06 06:51:41;;;;;;;;;;;;;;;16.43;43.35;100200.63;5031134;28;19936;-70
2023/06/06 06:54:09;;;;;;;;;;;;;;;16.42;43.98;100201.75;5038164;28;19925;-70
2023/06/06 06:56:36;;;;;;;;;;;;;;;16.54;43.79;100201.25;5035649;28;19925;-71
2023/06/06 06:59:03;;;;;;;;;;;;;;;16.56;43.52;100198.19;5035985;28;20244;-71
2023/06/06 07:01:29;;;;;;;;;;;;;;;16.52;42.98;100192.47;5044577;28;20031;-77
2023/06/06 07:03:55;;;;;;;;;;;;;;;16.61;43.24;100194.53;5045923;28;19935;-77
2023/06/06 07:06:22;;;;;;;;;;;;;;;16.83;42.41;100199.34;5042452;28;20434;-77
2023/06/06 07:08:49;;;;;;;;;;;;;;;16.76;42.07;100193.38;5064773;28;19931;-77
2023/06/06 07:11:15;;;;;;;;;;;;;;;16.74;42.34;100190.94;5032425;28;19925;-77
2023/06/06 07:13:41;;;;;;;;;;;;;;;16.93;42.80;100196.34;5025480;28;20446;-77
2023/06/06 07:16:08;;;;;;;;;;;;;;;17.05;41.93;100209.69;5022845;28;19931;-71
2023/06/06 07:18:34;;;;;;;;;;;;;;;17.11;41.42;100186.31;5039598;28;19924;-71
2023/06/06 07:21:00;;;;;;;;;;;;;;;17.18;40.90;100201.69;5046558;28;19994;-78
2023/06/06 07:23:27;;;;;;;;;;;;;;;17.42;40.76;100193.13;5041545;28;19925;-78
2023/06/06 07:25:53;;;;;;;;;;;;;;;17.50;40.25;100191.56;5039697;28;20176;-77
2023/06/06 07:28:19;;;;;;;;;;;;;;;17.68;39.95;100193.34;5043873;28;20427;-71
2023/06/06 07:30:44;;;;;;;;;;;;;;;17.95;39.23;100199.88;5039202;28;19983;-73
2023/06/06 07:33:10;;;;;;;;;;;;;;;18.01;39.04;100189.50;5042529;28;20023;-72
2023/06/06 07:35:36;;;;;;;;;;;;;;;18.10;38.45;100203.41;5048720;28;20015;-78
2023/06/06 07:38:02;;;;;;;;;;;;;;;17.84;38.04;100201.28;5047970;28;19925;-78
2023/06/06 07:40:30;;;;;;;;;;;;;;;17.87;38.59;100192.34;5047949;28;19928;-77
2023/06/06 07:42:57;;;;;;;;;;;;;;;18.32;37.90;100188.72;5046799;28;19932;-78
2023/06/06 07:45:23;;;;;;;;;;;;;;;18.75;37.47;100184.53;5045186;28;19924;-77
2023/06/06 07:47:49;;;;;;;;;;;;;;;19.18;36.85;100184.94;5042439;28;20384;-70
2023/06/06 07:50:15;;;;;;;;;;;;;;;19.16;36.57;100187.25;5044760;28;19925;-71
2023/06/06 07:52:44;;;;;;;;;;;;;;;19.01;37.32;100194.88;5025527;28;19931;-71
2023/06/06 07:55:11;;;;;;;;;;;;;;;18.89;37.43;100187.16;5038137;28;19924;-70
2023/06/06 07:57:39;;;;;;;;;;;;;;;18.75;37.55;100184.53;5041194;28;19946;-71
2023/06/06 08:00:07;;;;;;;;;;;;;;;18.77;37.25;100176.72;5045414;28;19929;-71
2023/06/06 08:02:39;;;;;;;;;;;;;;;18.58;37.65;100184.47;5042917;28;19931;-77
2023/06/06 08:05:05;;;;;;;;;;;;;;;18.67;36.86;100191.66;5043079;28;20438;-78
2023/06/06 08:07:32;;;;;;;;;;;;;;;18.88;36.96;100180.00;5045969;28;19928;-78
2023/06/06 08:09:58;;;;;;;;;;;;;;;19.21;35.47;100187.09;5044041;28;19932;-77
2023/06/06 08:12:24;;;;;;;;;;;;;;;19.37;35.30;100177.19;5047307;28;20304;-79
2023/06/06 08:14:51;;;;;;;;;;;;;;;19.47;36.07;100166.88;5012609;28;19931;-78
2023/06/06 08:17:17;;;;;;;;;;;;;;;20.11;35.13;100177.28;5045607;28;20039;-71
2023/06/06 08:19:43;;;;;;;;;;;;;;;20.80;34.12;100170.97;5038037;28;20033;-71
2023/06/06 08:22:09;;;;;;;;;;;;;;;21.38;32.50;100168.47;5042962;28;20027;-71
2023/06/06 08:24:35;;;;;;;;;;;;;;;21.41;32.09;100174.53;5044375;28;19924;-77
2023/06/06 08:27:01;;;;;;;;;;;;;;;21.25;32.16;100173.16;5044283;28;20233;-70
2023/06/06 08:29:27;;;;;;;;;;;;;;;21.56;32.11;100176.69;5028672;28;19979;-70
2023/06/06 08:31:54;;;;;;;;;;;;;;;21.40;31.73;100168.13;5040708;28;19925;-71
2023/06/06 08:34:20;;;;;;;;;;;;;;;21.41;30.89;100166.97;5040187;28;19925;-72
2023/06/06 08:36:46;;;;;;;;;;;;;;;21.56;30.93;100170.31;5045339;28;19925;-71
2023/06/06 08:39:12;;;;;;;;;;;;;;;21.65;30.96;100165.50;5041517;28;19932;-71
2023/06/06 08:41:38;;;;;;;;;;;;;;;21.65;31.19;100163.53;5044543;28;19929;-71
2023/06/06 08:44:04;;;;;;;;;;;;;;;22.05;30.58;100153.00;5047052;28;19932;-78
2023/06/06 08:46:31;;;;;;;;;;;;;;;22.26;30.15;100149.31;5042631;28;20019;-79
2023/06/06 08:49:01;;;;;;;;;;;;;;;23.00;29.35;100154.09;5041627;28;20467;-77
2023/06/06 08:51:27;;;;;;;;;;;;;;;23.41;29.07;100149.38;5041951;28;19986;-78
2023/06/06 08:53:53;;;;;;;;;;;;;;;21.88;30.57;100149.25;5043877;28;19924;-78
2023/06/06 08:56:22;;;;;;;;;;;;;;;20.72;31.66;100149.59;5046893;28;19925;-77
2023/06/06 08:58:49;;;;;;;;;;;;;;;20.20;33.11;100145.91;5042992;28;19971;-79
2023/06/06 09:01:16;;;;;;;;;;;;;;;20.91;32.11;100140.84;5044976;28;20293;-78
2023/06/06 09:03:43;;;;;;;;;;;;;;;22.32;30.02;100131.22;5044685;28;19928;-78
2023/06/06 09:06:11;;;;;;;;;;;;;;;23.52;28.57;100124.59;5059009;28;20319;-78
2023/06/06 09:08:38;;;;;;;;;;;;;;;22.89;29.03;100134.25;5037227;28;19994;-78
2023/06/06 09:11:03;;;;;;;;;;;;;;;21.93;30.08;100134.28;5049816;28;20388;-71
2023/06/06 09:13:29;;;;;;;;;;;;;;;22.48;29.25;100134.16;5025257;28;19925;-78
2023/06/06 09:15:55;;;;;;;;;;;;;;;23.54;28.05;100116.66;5027577;28;19924;-78
2023/06/06 09:18:21;;;;;;;;;;;;;;;23.63;27.85;100119.28;5045681;28;19924;-78
2023/06/06 09:20:52;;;;;;;;;;;;;;;23.25;28.63;100124.19;5047976;28;19929;-78
2023/06/06 09:23:20;;;;;;;;;;;;;;;22.78;28.89;100122.78;5039273;28;19924;-78
2023/06/06 09:25:47;;;;;;;;;;;;;;;23.47;28.09;100108.91;5041615;28;19924;-79
2023/06/06 09:28:13;;;;;;;;;;;;;;;24.46;26.38;100107.50;5043411;28;19964;-78
2023/06/06 09:30:39;;;;;;;;;;;;;;;25.24;25.53;100105.25;5044383;28;19990;-78
2023/06/06 09:33:05;;;;;;;;;;;;;;;25.65;24.31;100102.09;5062181;28;19950;-78
2023/06/06 09:35:31;;;;;;;;;;;;;;;25.68;23.91;100106.94;5042106;28;20384;-73
2023/06/06 09:37:57;;;;;;;;;;;;;;;25.31;23.88;100106.22;5044086;28;19924;-78
2023/06/06 09:40:26;;;;;;;;;;;;;;;25.38;24.37;100108.34;5043523;28;19947;-78
2023/06/06 09:42:52;;;;;;;;;;;;;;;26.45;22.70;100104.28;5042053;28;20292;-78
2023/06/06 09:45:19;;;;;;;;;;;;;;;26.69;22.35;100102.25;5046360;28;19931;-78
2023/06/06 09:47:45;;;;;;;;;;;;;;;27.22;22.34;100092.97;5043774;28;19925;-79
2023/06/06 09:50:12;;;;;;;;;;;;;;;28.16;20.87;100093.16;5040817;28;19925;-78
2023/06/06 09:52:38;;;;;;;;;;;;;;;27.14;21.64;100099.69;5040109;28;19995;-78
2023/06/06 09:55:07;;;;;;;;;;;;;;;26.51;22.08;100097.19;5043938;28;19995;-79
2023/06/06 09:57:36;;;;;;;;;;;;;;;25.62;22.76;100084.03;5078556;28;19955;-79
2023/06/06 10:00:07;;;;;;;;;;;;;;;25.50;22.81;100090.63;5045511;28;19936;-78
2023/06/06 10:02:42;;;;;;;;;;;;;;;26.97;21.49;100090.66;5037577;28;19924;-78
2023/06/06 10:05:09;;;;;;;;;;;;;;;26.92;21.77;100087.38;5043798;28;19925;-70
2023/06/06 10:07:35;;;;;;;;;;;;;;;25.66;22.78;100090.50;5044107;28;19925;-72
2023/06/06 10:10:01;;;;;;;;;;;;;;;24.91;24.06;100091.41;5045044;28;20386;-78
2023/06/06 10:12:28;;;;;;;;;;;;;;;24.14;25.13;100084.38;5060821;28;19931;-78
2023/06/06 10:14:56;;;;;;;;;;;;;;;23.36;26.61;100102.22;5044873;28;19928;-79
2023/06/06 10:17:23;;;;;;;;;;;;;;;22.78;27.32;100092.91;5027151;28;20017;-79
2023/06/06 10:19:50;;;;;;;;;;;;;;;22.34;28.19;100092.72;5041340;28;19979;-78
2023/06/06 10:22:15;;;;;;;;;;;;;;;21.80;28.60;100091.72;5044890;28;19931;-78
2023/06/06 10:24:41;;;;;;;;;;;;;;;21.21;29.25;100088.81;5059561;28;19925;-78
2023/06/06 10:27:11;;;;;;;;;;;;;;;20.46;30.55;100086.69;5042617;28;19960;-78
2023/06/06 10:29:41;;;;;;;;;;;;;;;20.14;31.43;100094.50;5008214;28;19928;-77
2023/06/06 10:32:15;;;;;;;;;;;;;;;19.88;31.46;100087.03;5057149;28;19932;-71
2023/06/06 10:34:43;;;;;;;;;;;;;;;19.88;31.79;100081.50;5040579;28;19967;-70
2023/06/06 10:37:08;;;;;;;;;;;;;;;;;;5045308;28;20342;-78
2023/06/06 10:39:35;;;;;;;;;;;;;;;20.96;29.79;100090.66;5007050;28;19925;-71
2023/06/06 10:42:05;;;;;;;;;;;;;;;21.95;28.92;100090.25;5043432;28;19944;-71
2023/06/06 10:44:35;;;;;;;;;;;;;;;23.03;27.72;100090.09;5037777;28;19924;-71
2023/06/06 10:47:30;;;;;;;;;;;;;;;23.01;27.63;100086.03;5074949;28;20114;-78
2023/06/06 10:50:14;;;;;;;;;;;;;;;23.18;27.95;100084.94;5019556;28;20388;-79
2023/06/06 10:52:43;;;;;;;;;;;;;;;25.73;24.83;100079.47;5028194;28;19920;-79
2023/06/06 10:55:13;;;;;;;;;;;;;;;25.68;24.51;100082.56;5045562;28;19929;-79
2023/06/06 10:57:41;;;;;;;;;;;;;;;24.73;25.93;100084.53;5046356;28;20402;-78
2023/06/06 11:00:09;;;;;;;;;;;;;;;23.67;27.03;100070.00;5051786;28;19956;-78
2023/06/06 11:02:35;;;;;;;;;;;;;;;22.78;28.48;100092.91;5050049;28;19924;-78
2023/06/06 11:05:01;;;;;;;;;;;;;;;21.81;29.33;100088.59;5050168;28;19925;-79
2023/06/06 11:07:28;;;;;;;;;;;;;;;21.37;30.36;100085.41;5048675;28;20311;-78
2023/06/06 11:09:55;;;;;;;;;;;;;;;21.21;31.10;100080.47;5047597;28;20404;-78
2023/06/06 11:12:27;;;;;;;;;;;;;;;21.00;31.27;100083.25;5028276;28;19928;-78
2023/06/06 11:14:57;;;;;;;;;;;;;;;20.73;31.47;100079.00;5050518;28;19956;-78
2023/06/06 11:17:27;;;;;;;;;;;;;;;20.63;31.59;100089.34;5046369;28;19988;-77
2023/06/06 11:19:54;;;;;;;;;;;;;;;20.35;31.97;100080.69;5041636;28;19964;-78
2023/06/06 11:22:21;;;;;;;;;;;;;;;20.69;31.55;100081.63;5044542;28;20423;-70
2023/06/06 11:24:46;;;;;;;;;;;;;;;21.48;30.74;100071.88;5040888;28;19932;-78
2023/06/06 11:27:15;;;;;;;;;;;;;;;22.48;29.86;100078.47;5047578;28;19924;-78
2023/06/06 11:29:41;;;;;;;;;;;;;;;24.06;27.64;100061.84;5043223;28;19925;-79
2023/06/06 11:32:09;;;;;;;;;;;;;;;25.70;25.75;100062.59;5045788;28;19990;-78
2023/06/06 11:34:35;;;;;;;;;;;;;;;27.26;23.80;100076.19;5045001;28;20023;-78
2023/06/06 11:37:01;;;;;;;;;;;;;;;28.62;22.53;100060.19;5043104;28;19931;-79
2023/06/06 11:39:28;;;;;;;;;;;;;;;29.78;20.89;100066.28;5044378;28;19932;-79
2023/06/06 11:41:56;;;;;;;;;;;;;;;29.44;21.21;100053.34;5041791;28;20396;-79
2023/06/06 11:44:29;;;;;;;;;;;;;;;29.86;21.08;100051.81;5008745;28;19925;-79
2023/06/06 11:46:55;;;;;;;;;;;;;;;29.78;20.93;100053.00;5044433;28;19924;-79
2023/06/06 11:49:21;;;;;;;;;;;;;;;28.27;21.90;100059.56;5047023;28;19935;-71
2023/06/06 11:51:55;;;;;;;;;;;;;;;27.79;22.32;100060.31;5046193;28;19964;-72
2023/06/06 11:54:21;;;;;;;;;;;;;;;28.40;21.70;100060.84;5043613;28;19928;-72
2023/06/06 11:56:50;;;;;;;;;;;;;;;27.76;21.85;100059.09;5043356;28;20367;-72
2023/06/06 11:59:16;;;;;;;;;;;;;;;25.15;25.10;100060.72;5027669;28;20031;-79
2023/06/06 12:01:49;;;;;;;;;;;;;;;23.74;27.01;100050.63;5048047;28;20352;-79
2023/06/06 12:04:15;;;;;;;;;;;;;;;22.81;28.89;100057.97;5042069;28;19936;-79
2023/06/06 12:06:44;;;;;;;;;;;;;;;22.36;29.42;100056.97;5044092;28;20356;-79
2023/06/06 12:09:12;;;;;;;;;;;;;;;21.85;30.40;100055.28;5077878;28;19924;-71
2023/06/06 12:11:48;;;;;;;;;;;;;;;21.34;31.27;100063.84;5044353;28;19925;-78
2023/06/06 12:14:14;;;;;;;;;;;;;;;21.00;32.00;100061.00;5043005;28;19932;-78
2023/06/06 12:16:39;;;;;;;;;;;;;;;20.62;33.08;100062.72;5036444;28;19932;-78
2023/06/06 12:19:13;;;;;;;;;;;;;;;20.34;33.55;100062.41;5044226;28;19928;-71
2023/06/06 12:21:46;;;;;;;;;;;;;;;20.15;33.98;100055.31;5043519;28;19925;-70
2023/06/06 12:24:15;;;;;;;;;;;;;;;20.04;34.42;100043.75;5044683;28;19929;-70
2023/06/06 12:26:53;;;;;;;;;;;;;;;19.92;34.16;100046.44;5016087;28;19925;-71
2023/06/06 12:29:19;;;;;;;;;;;;;;;20.04;34.45;100051.28;5043635;28;20023;-71
2023/06/06 12:31:46;;;;;;;;;;;;;;;20.50;33.50;100044.03;5033535;28;20085;-70
2023/06/06 12:34:13;;;;;;;;;;;;;;;22.80;29.63;100048.00;5025157;28;19924;-70
2023/06/06 12:36:39;;;;;;;;;;;;;;;24.97;26.93;100038.75;5040943;28;19925;-71
2023/06/06 12:39:07;;;;;;;;;;;;;;;26.59;24.58;100033.63;5043835;28;20354;-71